Time;durP1;ratioP1;P1;durP2;ratioP2;P2;SDS_P1;SDS_P2;PMS_P1;PMS_P2;Temp;Humidity;BMP_temperature;BMP_pressure;BME280_temperature;BME280_humidity;BME280_pressure;Samples;Min_cycle;Max_cycle;Signal;HPM_P1;HPM_P2
2022/10/04 00:00:07;;;;;;;0.8;0.8;;;;;;;13.4;100.0;102130;;;;
2022/10/04 00:01:04;;;;;;;0.8;0.8;;;;;;;13.3;100.0;102130;;;;
2022/10/04 00:02:10;;;;;;;0.8;0.8;;;;;;;13.3;100.0;102130;;;;
2022/10/04 00:03:06;;;;;;;0.8;0.8;;;;;;;13.4;100.0;102130;;;;
2022/10/04 00:04:04;;;;;;;0.8;0.8;;;;;;;13.4;100.0;102130;;;;
2022/10/04 00:05:05;;;;;;;0.8;0.8;;;;;;;13.3;100.0;102130;;;;
2022/10/04 00:06:00;;;;;;;0.8;0.8;;;;;;;13.3;100.0;102130;;;;
2022/10/04 00:07:03;;;;;;;0.8;0.8;;;;;;;13.3;100.0;102130;;;;
2022/10/04 00:08:10;;;;;;;0.8;0.8;;;;;;;13.3;100.0;102130;;;;
2022/10/04 00:09:05;;;;;;;0.8;0.8;;;;;;;13.2;100.0;102130;;;;
2022/10/04 00:10:05;;;;;;;0.8;0.8;;;;;;;13.2;100.0;102130;;;;
2022/10/04 00:11:04;;;;;;;0.8;0.8;;;;;;;13.2;100.0;102130;;;;
2022/10/04 00:12:03;;;;;;;0.8;0.8;;;;;;;13.2;100.0;102130;;;;
2022/10/04 00:13:03;;;;;;;0.8;0.8;;;;;;;13.2;100.0;102130;;;;
2022/10/04 00:14:05;;;;;;;0.8;0.8;;;;;;;13.2;100.0;102130;;;;
2022/10/04 00:15:03;;;;;;;0.8;0.8;;;;;;;13.2;100.0;102120;;;;
2022/10/04 00:16:01;;;;;;;0.8;0.8;;;;;;;13.2;100.0;102120;;;;
2022/10/04 00:17:07;;;;;;;0.8;0.8;;;;;;;13.2;100.0;102120;;;;
2022/10/04 00:18:10;;;;;;;0.8;0.8;;;;;;;13.2;100.0;102120;;;;
2022/10/04 00:19:02;;;;;;;0.7;0.7;;;;;;;13.3;100.0;102120;;;;
2022/10/04 00:20:01;;;;;;;0.7;0.7;;;;;;;13.3;100.0;102120;;;;
2022/10/04 00:21:01;;;;;;;0.7;0.7;;;;;;;13.3;100.0;102120;;;;
2022/10/04 00:22:06;;;;;;;0.7;0.7;;;;;;;13.2;100.0;102120;;;;
2022/10/04 00:23:10;;;;;;;0.7;0.7;;;;;;;13.2;100.0;102120;;;;
2022/10/04 00:24:10;;;;;;;0.7;0.7;;;;;;;13.2;100.0;102120;;;;
2022/10/04 00:25:08;;;;;;;0.7;0.7;;;;;;;13.2;100.0;102110;;;;
2022/10/04 00:26:01;;;;;;;0.7;0.7;;;;;;;13.2;100.0;102110;;;;
2022/10/04 00:27:10;;;;;;;0.7;0.7;;;;;;;13.2;100.0;102110;;;;
2022/10/04 00:28:10;;;;;;;0.7;0.7;;;;;;;13.2;100.0;102110;;;;
2022/10/04 00:29:10;;;;;;;0.7;0.7;;;;;;;13.1;100.0;102110;;;;
2022/10/04 00:30:01;;;;;;;0.7;0.7;;;;;;;13.1;100.0;102110;;;;
2022/10/04 00:31:10;;;;;;;0.7;0.7;;;;;;;13.2;100.0;102110;;;;
2022/10/04 00:32:07;;;;;;;0.7;0.7;;;;;;;13.2;100.0;102110;;;;
2022/10/04 00:33:00;;;;;;;0.7;0.7;;;;;;;13.2;100.0;102110;;;;
2022/10/04 00:34:03;;;;;;;0.7;0.7;;;;;;;13.1;100.0;102110;;;;
2022/10/04 00:35:00;;;;;;;0.7;0.7;;;;;;;13.1;100.0;102110;;;;
2022/10/04 00:36:00;;;;;;;0.7;0.7;;;;;;;13.1;100.0;102110;;;;
2022/10/04 00:37:00;;;;;;;0.7;0.7;;;;;;;13.1;100.0;102110;;;;
2022/10/04 00:38:10;;;;;;;0.7;0.7;;;;;;;13.0;100.0;102100;;;;
2022/10/04 00:39:02;;;;;;;0.9;0.9;;;;;;;13.0;100.0;102100;;;;
2022/10/04 00:40:06;;;;;;;0.9;0.9;;;;;;;13.0;100.0;102100;;;;
2022/10/04 00:41:03;;;;;;;0.9;0.9;;;;;;;13.0;100.0;102090;;;;
2022/10/04 00:42:08;;;;;;;0.9;0.9;;;;;;;13.0;100.0;102090;;;;
2022/10/04 00:43:03;;;;;;;0.9;0.9;;;;;;;13.0;100.0;102090;;;;
2022/10/04 00:44:01;;;;;;;0.9;0.9;;;;;;;13.0;100.0;102090;;;;
2022/10/04 00:45:05;;;;;;;0.9;0.9;;;;;;;13.0;100.0;102100;;;;
2022/10/04 00:46:04;;;;;;;0.9;0.9;;;;;;;13.0;100.0;102100;;;;
2022/10/04 00:47:01;;;;;;;0.9;0.9;;;;;;;13.0;100.0;102100;;;;
2022/10/04 00:48:08;;;;;;;0.9;0.9;;;;;;;13.0;100.0;102090;;;;
2022/10/04 00:49:02;;;;;;;0.9;0.9;;;;;;;12.9;100.0;102090;;;;
2022/10/04 00:50:05;;;;;;;0.9;0.9;;;;;;;12.9;100.0;102090;;;;
2022/10/04 00:51:10;;;;;;;0.9;0.9;;;;;;;12.9;100.0;102090;;;;
2022/10/04 00:52:02;;;;;;;0.9;0.9;;;;;;;12.9;100.0;102090;;;;
2022/10/04 00:53:01;;;;;;;0.9;0.9;;;;;;;12.9;100.0;102090;;;;
2022/10/04 00:54:04;;;;;;;0.9;0.9;;;;;;;12.9;100.0;102090;;;;
2022/10/04 00:55:06;;;;;;;0.9;0.9;;;;;;;12.9;100.0;102100;;;;
2022/10/04 00:56:02;;;;;;;0.9;0.9;;;;;;;12.9;100.0;102100;;;;
2022/10/04 00:57:03;;;;;;;0.9;0.9;;;;;;;12.8;100.0;102100;;;;
2022/10/04 00:58:02;;;;;;;0.9;0.9;;;;;;;12.8;100.0;102100;;;;
2022/10/04 00:59:03;;;;;;;1.6;1.5;;;;;;;12.8;100.0;102090;;;;
2022/10/04 01:00:05;;;;;;;1.6;1.5;;;;;;;12.8;100.0;102090;;;;
2022/10/04 01:01:01;;;;;;;1.6;1.5;;;;;;;12.8;100.0;102090;;;;
2022/10/04 01:02:03;;;;;;;1.6;1.5;;;;;;;12.7;100.0;102090;;;;
2022/10/04 01:03:04;;;;;;;1.6;1.5;;;;;;;12.7;100.0;102090;;;;
2022/10/04 01:04:02;;;;;;;1.6;1.5;;;;;;;12.7;100.0;102090;;;;
2022/10/04 01:05:08;;;;;;;1.6;1.5;;;;;;;12.8;100.0;102090;;;;
2022/10/04 01:06:02;;;;;;;1.6;1.5;;;;;;;12.8;100.0;102090;;;;
2022/10/04 01:07:01;;;;;;;1.6;1.5;;;;;;;12.8;100.0;102090;;;;
2022/10/04 01:08:05;;;;;;;1.6;1.5;;;;;;;12.7;100.0;102080;;;;
2022/10/04 01:09:02;;;;;;;1.6;1.5;;;;;;;12.7;100.0;102070;;;;
2022/10/04 01:10:03;;;;;;;1.6;1.5;;;;;;;12.7;100.0;102070;;;;
2022/10/04 01:11:04;;;;;;;1.6;1.5;;;;;;;12.6;100.0;102070;;;;
2022/10/04 01:12:03;;;;;;;1.6;1.5;;;;;;;12.6;100.0;102070;;;;
2022/10/04 01:13:10;;;;;;;1.6;1.5;;;;;;;12.6;100.0;102060;;;;
2022/10/04 01:14:04;;;;;;;1.6;1.5;;;;;;;12.6;100.0;102060;;;;
2022/10/04 01:15:07;;;;;;;1.6;1.5;;;;;;;12.6;100.0;102060;;;;
2022/10/04 01:16:03;;;;;;;1.6;1.5;;;;;;;12.6;100.0;102060;;;;
2022/10/04 01:17:01;;;;;;;1.6;1.5;;;;;;;12.6;100.0;102060;;;;
2022/10/04 01:18:10;;;;;;;1.6;1.5;;;;;;;12.7;100.0;102050;;;;
2022/10/04 01:19:10;;;;;;;0.7;0.7;;;;;;;12.7;100.0;102060;;;;
2022/10/04 01:20:00;;;;;;;0.7;0.7;;;;;;;12.7;100.0;102060;;;;
2022/10/04 01:21:06;;;;;;;0.7;0.7;;;;;;;12.7;100.0;102060;;;;
2022/10/04 01:22:07;;;;;;;0.7;0.7;;;;;;;12.7;100.0;102060;;;;
2022/10/04 01:23:01;;;;;;;0.7;0.7;;;;;;;12.7;100.0;102060;;;;
2022/10/04 01:24:00;;;;;;;0.7;0.7;;;;;;;12.6;100.0;102060;;;;
2022/10/04 01:25:00;;;;;;;0.7;0.7;;;;;;;12.6;100.0;102060;;;;
2022/10/04 01:26:01;;;;;;;0.7;0.7;;;;;;;12.7;100.0;102060;;;;
2022/10/04 01:27:00;;;;;;;0.7;0.7;;;;;;;12.7;100.0;102060;;;;
2022/10/04 01:28:00;;;;;;;0.7;0.7;;;;;;;12.7;100.0;102060;;;;
2022/10/04 01:29:00;;;;;;;0.7;0.7;;;;;;;12.7;100.0;102060;;;;
2022/10/04 01:30:00;;;;;;;0.7;0.7;;;;;;;12.7;100.0;102060;;;;
2022/10/04 01:31:00;;;;;;;0.7;0.7;;;;;;;12.7;100.0;102060;;;;
2022/10/04 01:32:00;;;;;;;0.7;0.7;;;;;;;12.7;100.0;102060;;;;
2022/10/04 01:33:00;;;;;;;0.7;0.7;;;;;;;12.7;100.0;102060;;;;
2022/10/04 01:34:00;;;;;;;0.7;0.7;;;;;;;12.7;100.0;102050;;;;
2022/10/04 01:35:00;;;;;;;0.7;0.7;;;;;;;12.7;100.0;102050;;;;
2022/10/04 01:36:00;;;;;;;0.7;0.7;;;;;;;12.7;100.0;102050;;;;
2022/10/04 01:37:00;;;;;;;0.7;0.7;;;;;;;12.7;100.0;102050;;;;
2022/10/04 01:38:02;;;;;;;0.7;0.7;;;;;;;12.6;100.0;102050;;;;
2022/10/04 01:39:00;;;;;;;0.6;0.6;;;;;;;12.6;100.0;102050;;;;
2022/10/04 01:40:00;;;;;;;0.6;0.6;;;;;;;12.7;100.0;102050;;;;
2022/10/04 01:41:01;;;;;;;0.6;0.6;;;;;;;12.7;100.0;102050;;;;
2022/10/04 01:42:07;;;;;;;0.6;0.6;;;;;;;12.6;100.0;102040;;;;
2022/10/04 01:43:03;;;;;;;0.6;0.6;;;;;;;12.6;100.0;102040;;;;
2022/10/04 01:44:02;;;;;;;0.6;0.6;;;;;;;12.6;100.0;102040;;;;
2022/10/04 01:45:03;;;;;;;0.6;0.6;;;;;;;12.6;100.0;102040;;;;
2022/10/04 01:46:05;;;;;;;0.6;0.6;;;;;;;12.6;100.0;102040;;;;
2022/10/04 01:47:03;;;;;;;0.6;0.6;;;;;;;12.6;100.0;102040;;;;
2022/10/04 01:48:04;;;;;;;0.6;0.6;;;;;;;12.6;100.0;102040;;;;
2022/10/04 01:49:02;;;;;;;0.6;0.6;;;;;;;12.6;100.0;102040;;;;
2022/10/04 01:50:07;;;;;;;0.6;0.6;;;;;;;12.6;100.0;102040;;;;
2022/10/04 01:51:04;;;;;;;0.6;0.6;;;;;;;12.6;100.0;102040;;;;
2022/10/04 01:52:04;;;;;;;0.6;0.6;;;;;;;12.6;100.0;102040;;;;
2022/10/04 01:53:07;;;;;;;0.6;0.6;;;;;;;12.6;100.0;102030;;;;
2022/10/04 01:54:06;;;;;;;0.6;0.6;;;;;;;12.6;100.0;102030;;;;
2022/10/04 01:55:02;;;;;;;0.6;0.6;;;;;;;12.7;100.0;102030;;;;
2022/10/04 01:56:05;;;;;;;0.6;0.6;;;;;;;12.7;100.0;102030;;;;
2022/10/04 01:57:05;;;;;;;0.6;0.6;;;;;;;12.7;100.0;102030;;;;
2022/10/04 01:58:06;;;;;;;0.6;0.6;;;;;;;12.7;100.0;102030;;;;
2022/10/04 01:59:03;;;;;;;0.8;0.8;;;;;;;12.7;100.0;102040;;;;
2022/10/04 02:00:04;;;;;;;0.8;0.8;;;;;;;12.7;100.0;102040;;;;
2022/10/04 02:01:06;;;;;;;0.8;0.8;;;;;;;12.6;100.0;102040;;;;
2022/10/04 02:02:05;;;;;;;0.8;0.8;;;;;;;12.6;100.0;102040;;;;
2022/10/04 02:03:03;;;;;;;0.8;0.8;;;;;;;12.6;100.0;102030;;;;
2022/10/04 02:04:03;;;;;;;0.8;0.8;;;;;;;12.6;100.0;102030;;;;
2022/10/04 02:05:01;;;;;;;0.8;0.8;;;;;;;12.6;100.0;102030;;;;
2022/10/04 02:06:02;;;;;;;0.8;0.8;;;;;;;12.6;100.0;102020;;;;
2022/10/04 02:07:01;;;;;;;0.8;0.8;;;;;;;12.6;100.0;102020;;;;
2022/10/04 02:08:03;;;;;;;0.8;0.8;;;;;;;12.6;100.0;102020;;;;
2022/10/04 02:09:05;;;;;;;0.8;0.8;;;;;;;12.6;100.0;102020;;;;
2022/10/04 02:10:03;;;;;;;0.8;0.8;;;;;;;12.6;100.0;102020;;;;
2022/10/04 02:11:01;;;;;;;0.8;0.8;;;;;;;12.6;100.0;102020;;;;
2022/10/04 02:12:00;;;;;;;0.8;0.8;;;;;;;12.6;100.0;102020;;;;
2022/10/04 02:13:00;;;;;;;0.8;0.8;;;;;;;12.6;100.0;102020;;;;
2022/10/04 02:14:00;;;;;;;0.8;0.8;;;;;;;12.6;100.0;102010;;;;
2022/10/04 02:15:01;;;;;;;0.8;0.8;;;;;;;12.6;100.0;102010;;;;
2022/10/04 02:16:01;;;;;;;0.8;0.8;;;;;;;12.6;100.0;102010;;;;
2022/10/04 02:17:01;;;;;;;0.8;0.8;;;;;;;12.6;100.0;102010;;;;
2022/10/04 02:18:00;;;;;;;0.8;0.8;;;;;;;12.6;100.0;102000;;;;
2022/10/04 02:19:01;;;;;;;1.5;1.5;;;;;;;12.6;100.0;102000;;;;
2022/10/04 02:20:01;;;;;;;1.5;1.5;;;;;;;12.6;100.0;101990;;;;
2022/10/04 02:21:00;;;;;;;1.5;1.5;;;;;;;12.6;100.0;101990;;;;
2022/10/04 02:22:02;;;;;;;1.5;1.5;;;;;;;12.5;100.0;101990;;;;
2022/10/04 02:23:02;;;;;;;1.5;1.5;;;;;;;12.5;100.0;101990;;;;
2022/10/04 02:24:00;;;;;;;1.5;1.5;;;;;;;12.3;100.0;101980;;;;
2022/10/04 02:25:01;;;;;;;1.5;1.5;;;;;;;12.3;100.0;101980;;;;
2022/10/04 02:26:04;;;;;;;1.5;1.5;;;;;;;12.1;100.0;101970;;;;
2022/10/04 02:27:00;;;;;;;1.5;1.5;;;;;;;12.1;100.0;101970;;;;
2022/10/04 02:28:00;;;;;;;1.5;1.5;;;;;;;12.2;100.0;101970;;;;
2022/10/04 02:29:00;;;;;;;1.5;1.5;;;;;;;12.2;100.0;101970;;;;
2022/10/04 02:30:05;;;;;;;1.5;1.5;;;;;;;12.1;100.0;101970;;;;
2022/10/04 02:33:00;;;;;;;1.5;1.5;;;;;;;12.1;100.0;101980;;;;
2022/10/04 02:34:00;;;;;;;1.5;1.5;;;;;;;12.2;100.0;101980;;;;
2022/10/04 02:35:00;;;;;;;1.5;1.5;;;;;;;12.2;100.0;101980;;;;
2022/10/04 02:36:00;;;;;;;1.5;1.5;;;;;;;12.1;100.0;101980;;;;
2022/10/04 02:37:02;;;;;;;1.5;1.5;;;;;;;12.1;100.0;101980;;;;
2022/10/04 02:38:03;;;;;;;1.5;1.5;;;;;;;12.1;100.0;101980;;;;
2022/10/04 02:39:10;;;;;;;0.6;0.6;;;;;;;12.2;100.0;101980;;;;
2022/10/04 02:40:10;;;;;;;0.6;0.6;;;;;;;12.2;100.0;101980;;;;
2022/10/04 02:41:11;;;;;;;0.6;0.6;;;;;;;12.2;100.0;101970;;;;
2022/10/04 02:42:03;;;;;;;0.6;0.6;;;;;;;12.2;100.0;101970;;;;
2022/10/04 02:43:07;;;;;;;0.6;0.6;;;;;;;12.1;100.0;101970;;;;
2022/10/04 02:44:10;;;;;;;0.6;0.6;;;;;;;12.1;100.0;101970;;;;
2022/10/04 02:45:10;;;;;;;0.6;0.6;;;;;;;12.0;100.0;101970;;;;
2022/10/04 02:46:03;;;;;;;0.6;0.6;;;;;;;12.0;100.0;101970;;;;
2022/10/04 02:47:10;;;;;;;0.6;0.6;;;;;;;12.1;100.0;101960;;;;
2022/10/04 02:48:03;;;;;;;0.6;0.6;;;;;;;12.1;100.0;101960;;;;
2022/10/04 02:49:03;;;;;;;0.6;0.6;;;;;;;12.1;100.0;101950;;;;
2022/10/04 02:50:05;;;;;;;0.6;0.6;;;;;;;12.1;100.0;101950;;;;
2022/10/04 02:51:06;;;;;;;0.6;0.6;;;;;;;11.9;100.0;101950;;;;
2022/10/04 02:52:04;;;;;;;0.6;0.6;;;;;;;11.9;100.0;101950;;;;
2022/10/04 02:53:10;;;;;;;0.6;0.6;;;;;;;11.9;100.0;101950;;;;
2022/10/04 02:54:04;;;;;;;0.6;0.6;;;;;;;11.9;100.0;101950;;;;
2022/10/04 02:55:03;;;;;;;0.6;0.6;;;;;;;11.9;100.0;101950;;;;
2022/10/04 02:56:01;;;;;;;0.6;0.6;;;;;;;11.9;100.0;101950;;;;
2022/10/04 02:57:00;;;;;;;0.6;0.6;;;;;;;11.9;100.0;101950;;;;
2022/10/04 02:58:00;;;;;;;0.6;0.6;;;;;;;11.9;100.0;101950;;;;
2022/10/04 02:59:01;;;;;;;1.1;1.1;;;;;;;11.9;100.0;101950;;;;
2022/10/04 03:00:08;;;;;;;1.1;1.1;;;;;;;11.9;100.0;101950;;;;
2022/10/04 03:01:00;;;;;;;1.1;1.1;;;;;;;11.9;100.0;101950;;;;
2022/10/04 03:02:01;;;;;;;1.1;1.1;;;;;;;11.8;100.0;101940;;;;
2022/10/04 03:03:10;;;;;;;1.1;1.1;;;;;;;11.6;100.0;101940;;;;
2022/10/04 03:04:01;;;;;;;1.1;1.1;;;;;;;11.6;100.0;101940;;;;
2022/10/04 03:05:04;;;;;;;1.1;1.1;;;;;;;11.7;100.0;101940;;;;
2022/10/04 03:06:05;;;;;;;1.1;1.1;;;;;;;11.7;100.0;101940;;;;
2022/10/04 03:07:03;;;;;;;1.1;1.1;;;;;;;11.7;100.0;101930;;;;
2022/10/04 03:08:00;;;;;;;1.1;1.1;;;;;;;11.7;100.0;101930;;;;
2022/10/04 03:09:02;;;;;;;1.1;1.1;;;;;;;11.6;100.0;101930;;;;
2022/10/04 03:10:01;;;;;;;1.1;1.1;;;;;;;11.6;100.0;101930;;;;
2022/10/04 03:11:01;;;;;;;1.1;1.1;;;;;;;11.6;100.0;101930;;;;
2022/10/04 03:12:00;;;;;;;1.1;1.1;;;;;;;11.6;100.0;101930;;;;
2022/10/04 03:13:00;;;;;;;1.1;1.1;;;;;;;11.6;100.0;101930;;;;
2022/10/04 03:14:01;;;;;;;1.1;1.1;;;;;;;11.6;100.0;101930;;;;
2022/10/04 03:15:00;;;;;;;1.1;1.1;;;;;;;11.6;100.0;101930;;;;
2022/10/04 03:16:00;;;;;;;1.1;1.1;;;;;;;11.4;100.0;101930;;;;
2022/10/04 03:17:02;;;;;;;1.1;1.1;;;;;;;11.4;100.0;101930;;;;
2022/10/04 03:18:00;;;;;;;1.1;1.1;;;;;;;11.5;100.0;101930;;;;
2022/10/04 03:19:00;;;;;;;0.8;0.8;;;;;;;11.5;100.0;101930;;;;
2022/10/04 03:20:00;;;;;;;0.8;0.8;;;;;;;11.4;100.0;101930;;;;
2022/10/04 03:21:01;;;;;;;0.8;0.8;;;;;;;11.4;100.0;101930;;;;
2022/10/04 03:22:02;;;;;;;0.8;0.8;;;;;;;11.4;100.0;101920;;;;
2022/10/04 03:23:00;;;;;;;0.8;0.8;;;;;;;11.4;100.0;101920;;;;
2022/10/04 03:24:01;;;;;;;0.8;0.8;;;;;;;11.5;100.0;101930;;;;
2022/10/04 03:25:00;;;;;;;0.8;0.8;;;;;;;11.5;100.0;101930;;;;
2022/10/04 03:26:03;;;;;;;0.8;0.8;;;;;;;11.6;100.0;101920;;;;
2022/10/04 03:27:02;;;;;;;0.8;0.8;;;;;;;11.4;100.0;101920;;;;
2022/10/04 03:28:01;;;;;;;0.8;0.8;;;;;;;11.4;100.0;101920;;;;
2022/10/04 03:29:00;;;;;;;0.8;0.8;;;;;;;11.4;100.0;101920;;;;
2022/10/04 03:30:00;;;;;;;0.8;0.8;;;;;;;11.5;100.0;101920;;;;
2022/10/04 03:31:00;;;;;;;0.8;0.8;;;;;;;11.5;100.0;101920;;;;
2022/10/04 03:32:02;;;;;;;0.8;0.8;;;;;;;11.4;100.0;101920;;;;
2022/10/04 03:33:00;;;;;;;0.8;0.8;;;;;;;11.4;100.0;101920;;;;
2022/10/04 03:34:00;;;;;;;0.8;0.8;;;;;;;11.3;100.0;101910;;;;
2022/10/04 03:35:02;;;;;;;0.8;0.8;;;;;;;11.2;100.0;101920;;;;
2022/10/04 03:36:00;;;;;;;0.8;0.8;;;;;;;11.2;100.0;101920;;;;
2022/10/04 03:37:00;;;;;;;0.8;0.8;;;;;;;11.2;100.0;101920;;;;
2022/10/04 03:38:03;;;;;;;0.8;0.8;;;;;;;11.2;100.0;101920;;;;
2022/10/04 03:39:07;;;;;;;0.7;0.7;;;;;;;11.2;100.0;101920;;;;
2022/10/04 03:40:00;;;;;;;0.7;0.7;;;;;;;11.2;100.0;101920;;;;
2022/10/04 03:41:01;;;;;;;0.7;0.7;;;;;;;11.2;100.0;101920;;;;
2022/10/04 03:42:03;;;;;;;0.7;0.7;;;;;;;11.3;100.0;101910;;;;
2022/10/04 03:43:01;;;;;;;0.7;0.7;;;;;;;11.3;100.0;101910;;;;
2022/10/04 03:44:05;;;;;;;0.7;0.7;;;;;;;11.2;100.0;101910;;;;
2022/10/04 03:45:01;;;;;;;0.7;0.7;;;;;;;11.2;100.0;101910;;;;
2022/10/04 03:46:01;;;;;;;0.7;0.7;;;;;;;11.2;100.0;101910;;;;
2022/10/04 03:47:00;;;;;;;0.7;0.7;;;;;;;11.2;100.0;101910;;;;
2022/10/04 03:48:04;;;;;;;0.7;0.7;;;;;;;11.2;100.0;101910;;;;
2022/10/04 03:49:00;;;;;;;0.7;0.7;;;;;;;11.2;100.0;101910;;;;
2022/10/04 03:50:03;;;;;;;0.7;0.7;;;;;;;11.2;100.0;101910;;;;
2022/10/04 03:51:03;;;;;;;0.7;0.7;;;;;;;11.2;100.0;101910;;;;
2022/10/04 03:52:01;;;;;;;0.7;0.7;;;;;;;11.2;100.0;101910;;;;
2022/10/04 03:53:04;;;;;;;0.7;0.7;;;;;;;11.1;100.0;101900;;;;
2022/10/04 03:54:01;;;;;;;0.7;0.7;;;;;;;11.1;100.0;101900;;;;
2022/10/04 03:55:02;;;;;;;0.7;0.7;;;;;;;11.1;100.0;101900;;;;
2022/10/04 03:56:04;;;;;;;0.7;0.7;;;;;;;11.1;100.0;101900;;;;
2022/10/04 03:57:01;;;;;;;0.7;0.7;;;;;;;11.1;100.0;101900;;;;
2022/10/04 03:58:00;;;;;;;0.7;0.7;;;;;;;11.0;100.0;101900;;;;
2022/10/04 03:59:02;;;;;;;0.7;0.7;;;;;;;11.0;100.0;101890;;;;
2022/10/04 04:00:00;;;;;;;0.7;0.7;;;;;;;11.0;100.0;101890;;;;
2022/10/04 04:01:10;;;;;;;0.7;0.7;;;;;;;11.0;100.0;101890;;;;
2022/10/04 04:02:03;;;;;;;0.7;0.7;;;;;;;11.0;100.0;101890;;;;
2022/10/04 04:03:02;;;;;;;0.7;0.7;;;;;;;11.0;100.0;101890;;;;
2022/10/04 04:04:03;;;;;;;0.7;0.7;;;;;;;11.0;100.0;101890;;;;
2022/10/04 04:05:10;;;;;;;0.7;0.7;;;;;;;10.8;100.0;101890;;;;
2022/10/04 04:06:04;;;;;;;0.7;0.7;;;;;;;10.8;100.0;101890;;;;
2022/10/04 04:07:02;;;;;;;0.7;0.7;;;;;;;10.8;100.0;101890;;;;
2022/10/04 04:08:05;;;;;;;0.7;0.7;;;;;;;10.9;100.0;101890;;;;
2022/10/04 04:09:00;;;;;;;0.7;0.7;;;;;;;10.9;100.0;101890;;;;
2022/10/04 04:10:04;;;;;;;0.7;0.7;;;;;;;10.9;100.0;101890;;;;
2022/10/04 04:11:01;;;;;;;0.7;0.7;;;;;;;10.9;100.0;101890;;;;
2022/10/04 04:12:00;;;;;;;0.7;0.7;;;;;;;10.9;100.0;101880;;;;
2022/10/04 04:13:02;;;;;;;0.7;0.7;;;;;;;10.9;100.0;101880;;;;
2022/10/04 04:14:03;;;;;;;0.7;0.7;;;;;;;10.9;100.0;101880;;;;
2022/10/04 04:15:01;;;;;;;0.7;0.7;;;;;;;10.9;100.0;101880;;;;
2022/10/04 04:16:01;;;;;;;0.7;0.7;;;;;;;10.9;100.0;101880;;;;
2022/10/04 04:17:10;;;;;;;0.7;0.7;;;;;;;10.9;100.0;101880;;;;
2022/10/04 04:18:02;;;;;;;0.8;0.8;;;;;;;10.9;100.0;101880;;;;
2022/10/04 04:19:01;;;;;;;0.8;0.8;;;;;;;10.9;100.0;101880;;;;
2022/10/04 04:20:07;;;;;;;0.8;0.8;;;;;;;10.7;100.0;101880;;;;
2022/10/04 04:21:01;;;;;;;0.8;0.8;;;;;;;10.7;100.0;101880;;;;
2022/10/04 04:22:00;;;;;;;0.8;0.8;;;;;;;10.6;100.0;101880;;;;
2022/10/04 04:23:10;;;;;;;0.8;0.8;;;;;;;10.6;100.0;101880;;;;
2022/10/04 04:24:02;;;;;;;0.8;0.8;;;;;;;10.6;100.0;101880;;;;
2022/10/04 04:25:01;;;;;;;0.8;0.8;;;;;;;10.6;100.0;101880;;;;
2022/10/04 04:26:10;;;;;;;0.8;0.8;;;;;;;10.6;100.0;101890;;;;
2022/10/04 04:27:04;;;;;;;0.8;0.8;;;;;;;10.6;100.0;101890;;;;
2022/10/04 04:28:11;;;;;;;0.8;0.8;;;;;;;10.6;100.0;101880;;;;
2022/10/04 04:29:02;;;;;;;0.8;0.8;;;;;;;10.6;100.0;101880;;;;
2022/10/04 04:30:01;;;;;;;0.8;0.8;;;;;;;10.7;100.0;101890;;;;
2022/10/04 04:31:04;;;;;;;0.8;0.8;;;;;;;10.7;100.0;101890;;;;
2022/10/04 04:32:04;;;;;;;0.8;0.8;;;;;;;10.7;100.0;101890;;;;
2022/10/04 04:33:04;;;;;;;0.8;0.8;;;;;;;10.8;100.0;101890;;;;
2022/10/04 04:34:01;;;;;;;0.8;0.8;;;;;;;10.8;100.0;101890;;;;
2022/10/04 04:35:06;;;;;;;0.8;0.8;;;;;;;10.8;100.0;101890;;;;
2022/10/04 04:36:10;;;;;;;0.8;0.8;;;;;;;10.8;100.0;101890;;;;
2022/10/04 04:37:01;;;;;;;0.8;0.8;;;;;;;10.8;100.0;101890;;;;
2022/10/04 04:38:04;;;;;;;1.5;1.5;;;;;;;10.7;100.0;101890;;;;
2022/10/04 04:40:10;;;;;;;1.5;1.5;;;;;;;10.7;100.0;101890;;;;
2022/10/04 04:41:07;;;;;;;1.5;1.5;;;;;;;10.7;100.0;101900;;;;
2022/10/04 04:42:05;;;;;;;1.5;1.5;;;;;;;10.7;100.0;101900;;;;
2022/10/04 04:43:01;;;;;;;1.5;1.5;;;;;;;10.7;100.0;101900;;;;
2022/10/04 04:44:00;;;;;;;1.5;1.5;;;;;;;10.6;100.0;101890;;;;
2022/10/04 04:45:03;;;;;;;1.5;1.5;;;;;;;10.5;100.0;101880;;;;
2022/10/04 04:46:11;;;;;;;1.5;1.5;;;;;;;10.5;100.0;101880;;;;
2022/10/04 04:47:00;;;;;;;1.5;1.5;;;;;;;10.5;100.0;101880;;;;
2022/10/04 04:48:02;;;;;;;1.5;1.5;;;;;;;10.4;100.0;101880;;;;
2022/10/04 04:49:02;;;;;;;1.5;1.5;;;;;;;10.4;100.0;101880;;;;
2022/10/04 04:50:04;;;;;;;1.5;1.5;;;;;;;10.4;100.0;101870;;;;
2022/10/04 04:51:00;;;;;;;1.5;1.5;;;;;;;10.4;100.0;101870;;;;
2022/10/04 04:52:00;;;;;;;1.5;1.5;;;;;;;10.5;100.0;101870;;;;
2022/10/04 04:53:04;;;;;;;1.5;1.5;;;;;;;10.4;100.0;101870;;;;
2022/10/04 04:54:02;;;;;;;1.5;1.5;;;;;;;10.4;100.0;101870;;;;
2022/10/04 04:55:00;;;;;;;1.5;1.5;;;;;;;10.4;100.0;101870;;;;
2022/10/04 04:56:05;;;;;;;1.5;1.5;;;;;;;10.5;100.0;101870;;;;
2022/10/04 04:57:00;;;;;;;1.5;1.5;;;;;;;10.5;100.0;101870;;;;
2022/10/04 04:58:00;;;;;;;1.3;1.3;;;;;;;10.4;100.0;101880;;;;
2022/10/04 04:59:02;;;;;;;1.3;1.3;;;;;;;10.4;100.0;101870;;;;
2022/10/04 05:00:00;;;;;;;1.3;1.3;;;;;;;10.4;100.0;101870;;;;
2022/10/04 05:01:07;;;;;;;1.3;1.3;;;;;;;10.5;100.0;101870;;;;
2022/10/04 05:02:00;;;;;;;1.3;1.3;;;;;;;10.5;100.0;101870;;;;
2022/10/04 05:03:02;;;;;;;1.3;1.3;;;;;;;10.3;100.0;101870;;;;
2022/10/04 05:04:03;;;;;;;1.3;1.3;;;;;;;10.3;100.0;101870;;;;
2022/10/04 05:05:10;;;;;;;1.3;1.3;;;;;;;10.4;100.0;101870;;;;
2022/10/04 05:06:01;;;;;;;1.3;1.3;;;;;;;10.4;100.0;101870;;;;
2022/10/04 05:07:02;;;;;;;1.3;1.3;;;;;;;10.4;100.0;101870;;;;
2022/10/04 05:08:10;;;;;;;1.3;1.3;;;;;;;10.4;100.0;101870;;;;
2022/10/04 05:09:00;;;;;;;1.3;1.3;;;;;;;10.4;100.0;101870;;;;
2022/10/04 05:10:00;;;;;;;1.3;1.3;;;;;;;10.4;100.0;101870;;;;
2022/10/04 05:11:04;;;;;;;1.3;1.3;;;;;;;10.3;100.0;101860;;;;
2022/10/04 05:12:06;;;;;;;1.3;1.3;;;;;;;10.3;100.0;101860;;;;
2022/10/04 05:13:01;;;;;;;1.3;1.3;;;;;;;10.3;100.0;101860;;;;
2022/10/04 05:14:02;;;;;;;1.3;1.3;;;;;;;10.3;100.0;101860;;;;
2022/10/04 05:15:00;;;;;;;1.3;1.3;;;;;;;10.3;100.0;101860;;;;
2022/10/04 05:16:00;;;;;;;1.3;1.3;;;;;;;10.3;100.0;101860;;;;
2022/10/04 05:17:00;;;;;;;1.3;1.3;;;;;;;10.3;100.0;101860;;;;
2022/10/04 05:18:01;;;;;;;0.9;0.9;;;;;;;10.3;100.0;101860;;;;
2022/10/04 05:19:02;;;;;;;0.9;0.9;;;;;;;10.4;100.0;101860;;;;
2022/10/04 05:20:01;;;;;;;0.9;0.9;;;;;;;10.4;100.0;101860;;;;
2022/10/04 05:21:06;;;;;;;0.9;0.9;;;;;;;10.4;100.0;101860;;;;
2022/10/04 05:22:02;;;;;;;0.9;0.9;;;;;;;10.4;100.0;101860;;;;
2022/10/04 05:23:00;;;;;;;0.9;0.9;;;;;;;10.4;100.0;101860;;;;
2022/10/04 05:24:10;;;;;;;0.9;0.9;;;;;;;10.1;100.0;101870;;;;
2022/10/04 05:25:01;;;;;;;0.9;0.9;;;;;;;10.1;100.0;101870;;;;
2022/10/04 05:26:03;;;;;;;0.9;0.9;;;;;;;10.2;100.0;101870;;;;
2022/10/04 05:27:05;;;;;;;0.9;0.9;;;;;;;10.3;100.0;101870;;;;
2022/10/04 05:28:01;;;;;;;0.9;0.9;;;;;;;10.3;100.0;101870;;;;
2022/10/04 05:29:05;;;;;;;0.9;0.9;;;;;;;10.2;100.0;101870;;;;
2022/10/04 05:30:08;;;;;;;0.9;0.9;;;;;;;10.2;100.0;101870;;;;
2022/10/04 05:31:10;;;;;;;0.9;0.9;;;;;;;10.2;100.0;101870;;;;
2022/10/04 05:32:10;;;;;;;0.9;0.9;;;;;;;10.2;100.0;101870;;;;
2022/10/04 05:33:02;;;;;;;0.9;0.9;;;;;;;10.2;100.0;101870;;;;
2022/10/04 05:34:00;;;;;;;0.9;0.9;;;;;;;10.2;100.0;101870;;;;
2022/10/04 05:35:00;;;;;;;0.9;0.9;;;;;;;10.2;100.0;101870;;;;
2022/10/04 05:36:10;;;;;;;0.9;0.9;;;;;;;10.2;100.0;101870;;;;
2022/10/04 05:37:07;;;;;;;0.9;0.9;;;;;;;10.2;100.0;101870;;;;
2022/10/04 05:38:10;;;;;;;1.9;1.6;;;;;;;10.2;100.0;101870;;;;
2022/10/04 05:39:05;;;;;;;1.9;1.6;;;;;;;10.2;100.0;101880;;;;
2022/10/04 05:40:00;;;;;;;1.9;1.6;;;;;;;10.2;100.0;101880;;;;
2022/10/04 05:41:05;;;;;;;1.9;1.6;;;;;;;10.2;100.0;101880;;;;
2022/10/04 05:42:06;;;;;;;1.9;1.6;;;;;;;10.2;100.0;101880;;;;
2022/10/04 05:43:00;;;;;;;1.9;1.6;;;;;;;10.2;100.0;101880;;;;
2022/10/04 05:44:01;;;;;;;1.9;1.6;;;;;;;10.2;100.0;101880;;;;
2022/10/04 05:45:00;;;;;;;1.9;1.6;;;;;;;10.2;100.0;101880;;;;
2022/10/04 05:46:10;;;;;;;1.9;1.6;;;;;;;10.2;100.0;101880;;;;
2022/10/04 05:47:01;;;;;;;1.9;1.6;;;;;;;10.2;100.0;101880;;;;
2022/10/04 05:48:00;;;;;;;1.9;1.6;;;;;;;10.2;100.0;101880;;;;
2022/10/04 05:49:05;;;;;;;1.9;1.6;;;;;;;10.2;100.0;101880;;;;
2022/10/04 05:50:00;;;;;;;1.9;1.6;;;;;;;10.2;100.0;101880;;;;
2022/10/04 05:51:00;;;;;;;1.9;1.6;;;;;;;10.2;100.0;101880;;;;
2022/10/04 05:52:01;;;;;;;1.9;1.6;;;;;;;10.2;100.0;101880;;;;
2022/10/04 05:53:10;;;;;;;1.9;1.6;;;;;;;10.2;100.0;101880;;;;
2022/10/04 05:54:00;;;;;;;1.9;1.6;;;;;;;10.2;100.0;101880;;;;
2022/10/04 05:55:10;;;;;;;1.9;1.6;;;;;;;10.1;100.0;101880;;;;
2022/10/04 05:56:10;;;;;;;1.9;1.6;;;;;;;10.1;100.0;101880;;;;
2022/10/04 05:57:11;;;;;;;1.9;1.6;;;;;;;10.1;100.0;101880;;;;
2022/10/04 05:58:07;;;;;;;1.4;1.3;;;;;;;10.1;100.0;101880;;;;
2022/10/04 05:59:10;;;;;;;1.4;1.3;;;;;;;10.1;100.0;101880;;;;
2022/10/04 06:00:10;;;;;;;1.4;1.3;;;;;;;10.1;100.0;101880;;;;
2022/10/04 06:01:00;;;;;;;1.4;1.3;;;;;;;10.1;100.0;101880;;;;
2022/10/04 06:02:01;;;;;;;1.4;1.3;;;;;;;10.1;100.0;101890;;;;
2022/10/04 06:03:10;;;;;;;1.4;1.3;;;;;;;10.2;100.0;101890;;;;
2022/10/04 06:04:10;;;;;;;1.4;1.3;;;;;;;10.2;100.0;101890;;;;
2022/10/04 06:05:09;;;;;;;1.4;1.3;;;;;;;10.2;100.0;101880;;;;
2022/10/04 06:06:04;;;;;;;1.4;1.3;;;;;;;10.2;100.0;101880;;;;
2022/10/04 06:07:03;;;;;;;1.4;1.3;;;;;;;10.2;100.0;101880;;;;
2022/10/04 06:08:07;;;;;;;1.4;1.3;;;;;;;10.2;100.0;101880;;;;
2022/10/04 06:09:00;;;;;;;1.4;1.3;;;;;;;10.2;100.0;101880;;;;
2022/10/04 06:10:08;;;;;;;1.4;1.3;;;;;;;10.3;100.0;101890;;;;
2022/10/04 06:11:04;;;;;;;1.4;1.3;;;;;;;10.1;100.0;101880;;;;
2022/10/04 06:12:01;;;;;;;1.4;1.3;;;;;;;10.1;100.0;101880;;;;
2022/10/04 06:13:09;;;;;;;1.4;1.3;;;;;;;10.2;100.0;101880;;;;
2022/10/04 06:14:03;;;;;;;1.4;1.3;;;;;;;10.2;100.0;101880;;;;
2022/10/04 06:15:07;;;;;;;1.4;1.3;;;;;;;10.2;100.0;101890;;;;
2022/10/04 06:16:03;;;;;;;1.4;1.3;;;;;;;10.2;100.0;101890;;;;
2022/10/04 06:17:10;;;;;;;1.4;1.3;;;;;;;10.2;100.0;101890;;;;
2022/10/04 06:18:10;;;;;;;0.9;0.9;;;;;;;10.2;100.0;101890;;;;
2022/10/04 06:19:01;;;;;;;0.9;0.9;;;;;;;10.2;100.0;101890;;;;
2022/10/04 06:20:10;;;;;;;0.9;0.9;;;;;;;10.3;100.0;101890;;;;
2022/10/04 06:21:10;;;;;;;0.9;0.9;;;;;;;10.3;100.0;101890;;;;
2022/10/04 06:22:07;;;;;;;0.9;0.9;;;;;;;10.3;100.0;101890;;;;
2022/10/04 06:23:01;;;;;;;0.9;0.9;;;;;;;10.3;100.0;101890;;;;
2022/10/04 06:24:09;;;;;;;0.9;0.9;;;;;;;10.3;100.0;101880;;;;
2022/10/04 06:25:01;;;;;;;0.9;0.9;;;;;;;10.3;100.0;101880;;;;